Details From CYUL - Montreal Pierre E Trudeau Intl
To CYQB - Quebec Jean Lesage Intl
Flight Number -
Tags Generated
Created
Modified
Stats Distance 127 nm / 234 km
Max Altitude 0 ft / 0 m
Waypoints 2
Social Downloads 1
Likes 0
Share VATSIM

Download

Looking for another format? Having issues loading an existing format? Contact us
Advertisement - Login to hide

Notes

Generated

Route

CYUL CYQB

ID Type Via Altitude Latitude Longitude Leg Dist Tot Dist Heading (true) Name
O CYUL APT - 0 ft / 0 m 45.46250˚ -73.76500˚ - 0 nm - -
O CYQB APT - 0 ft / 0 m 46.78883˚ -71.40294˚ 126 nm 126 nm 50° / 52° -

Altitude Profile

Advertisement - Login to hide

CYUL

Details ICAO CYUL (YUL)
Name Montreal Pierre E Trudeau Intl
Region Canada
Timezone America/Montreal (UTC-5.0)
Stats Elevation 117 ft / 36 m (AMSL)
Location 45.467269° -73.744028°
Runways 3
Magnetic Variation 14.322° W

METAR

CYUL 151000Z 22004KT 15SM FEW015 M18/M22 A3002 RMK CF1 CF TR SLP169

Decode

TAF

TAF CYUL 150839Z 1509/1606 24010KT P6SM SKC BECMG 1512/1514 23005KT FM151600 04007KT P6SM BKN030 BKN120 TEMPO 1519/1606 6SM -SN RMK NXT FCST BY 151200Z

Decode

Departure Runways

ID Width Length Bearing (true) Bearing (mag) Surface Threshold Offset Overrun Length
06L 200 ft / 61 m 11,020 ft / 3,359 m 42.62° 56.94° Asphalt 0 ft / 0 m 0 ft / 0 m
06R 200 ft / 61 m 9,706 ft / 2,958 m 41.23° 55.55° Asphalt 0 ft / 0 m 0 ft / 0 m
10 200 ft / 61 m 6,831 ft / 2,082 m 87.45° 101.77° Asphalt 0 ft / 0 m 0 ft / 0 m
24L 200 ft / 61 m 9,706 ft / 2,958 m 221.25° 235.57° Asphalt 0 ft / 0 m 0 ft / 0 m
24R 200 ft / 61 m 11,020 ft / 3,359 m 222.64° 236.96° Asphalt 0 ft / 0 m 0 ft / 0 m
28 200 ft / 61 m 6,831 ft / 2,082 m 267.47° 281.79° Asphalt 0 ft / 0 m 0 ft / 0 m

CYQB

Details ICAO CYQB (YQB)
Name Quebec Jean Lesage Intl
Region Canada
Timezone America/Montreal (UTC-5.0)
Stats Elevation 244 ft / 74 m (AMSL)
Location 46.789458° -71.392764°
Runways 2
Magnetic Variation 15.837° W

METAR

CYQB 151000Z 26012KT 15SM FEW012 M20/M24 A2991 RMK SC1 SC TR SLP138

Decode

TAF

TAF TAF CYQB 150543Z 1506/1606 25012G22KT P6SM FEW012 FEW140 FM151300 25010G20KT P6SM SCT020 BECMG 1518/1520 24008KT FM152300 VRB03KT P6SM BKN020 BKN140 FM160400 VRB03KT 5SM -SN OVC015 RMK NXT FCST BY 151200Z

Decode

Destination Runways

ID Width Length Bearing (true) Bearing (mag) Surface Threshold Offset Overrun Length
06 150 ft / 46 m 9,020 ft / 2,749 m 44.00° 59.84° Asphalt 0 ft / 0 m 0 ft / 0 m
12 150 ft / 46 m 5,678 ft / 1,731 m 97.58° 113.42° Asphalt 0 ft / 0 m 0 ft / 0 m
24 150 ft / 46 m 9,020 ft / 2,749 m 224.02° 239.86° Asphalt 0 ft / 0 m 0 ft / 0 m
30 150 ft / 46 m 5,678 ft / 1,731 m 277.60° 293.44° Asphalt 0 ft / 0 m 0 ft / 0 m

Approach Navaids

Runway Type Ident Frequency Range Bearing (true) Bearing (mag) Slope Elevation
06 Localiser IQB 109.50 MHz 18 nm / 33 km 44.33° 60.17° - 197 ft / 60 m (AMSL)
06 Glidescope IQB 109.50 MHz 18 nm / 33 km 42.00° 57.84° 3.00° 233 ft / 71 m (AMSL)

Popular Alternatives